Time;durP1;ratioP1;P1;durP2;ratioP2;P2;SDS_P1;SDS_P2;PMS_P1;PMS_P2;Temp;Humidity;BMP_temperature;BMP_pressure;BME280_temperature;BME280_humidity;BME280_pressure;Samples;Min_cycle;Max_cycle;Signal;HPM_P1;HPM_P2
2023/04/27 00:01:11;;;;;;;16.90;4.90;;;15.50;78.70;;;;;;5047601;28;20021;-59
2023/04/27 00:03:38;;;;;;;13.80;3.95;;;15.40;78.90;;;;;;5047394;28;20053;-59
2023/04/27 00:06:04;;;;;;;17.17;4.28;;;15.50;79.00;;;;;;5047300;28;20081;-59
2023/04/27 00:08:30;;;;;;;24.23;5.20;;;15.50;79.00;;;;;;5047405;28;20397;-60
2023/04/27 00:10:56;;;;;;;16.30;4.38;;;15.40;78.90;;;;;;5045825;28;20021;-59
2023/04/27 00:13:21;;;;;;;20.30;4.40;;;15.40;79.70;;;;;;5047297;28;20379;-59
2023/04/27 00:15:47;;;;;;;17.35;4.03;;;15.40;79.10;;;;;;5047038;28;20079;-59
2023/04/27 00:18:13;;;;;;;18.55;4.97;;;15.30;79.10;;;;;;5047258;28;20041;-59
2023/04/27 00:20:39;;;;;;;22.02;4.22;;;15.40;79.30;;;;;;5047062;28;20403;-59
2023/04/27 00:23:04;;;;;;;11.68;3.75;;;15.30;79.30;;;;;;5045731;28;20049;-59
2023/04/27 00:25:30;;;;;;;11.57;3.88;;;15.30;79.40;;;;;;5047267;28;20041;-59
2023/04/27 00:27:55;;;;;;;14.90;4.57;;;15.30;79.60;;;;;;5045611;28;20090;-59
2023/04/27 00:30:21;;;;;;;18.98;4.65;;;15.30;79.70;;;;;;5046959;28;20033;-59
2023/04/27 00:32:47;;;;;;;18.05;4.25;;;15.30;79.80;;;;;;5047015;28;20060;-59
2023/04/27 00:35:12;;;;;;;18.95;4.68;;;15.30;80.00;;;;;;5046685;28;20055;-59
2023/04/27 00:37:38;;;;;;;17.95;3.88;;;15.20;80.00;;;;;;5047025;28;20033;-59
2023/04/27 00:40:07;;;;;;;8.32;3.30;;;15.20;80.00;;;;;;5046820;28;20026;-59
2023/04/27 00:42:33;;;;;;;16.50;4.45;;;15.20;80.10;;;;;;5045189;28;20464;-59
2023/04/27 00:44:59;;;;;;;14.05;3.85;;;15.20;80.10;;;;;;5046733;28;20517;-59
2023/04/27 00:47:25;;;;;;;12.45;3.63;;;15.20;80.30;;;;;;5046709;28;20034;-59
2023/04/27 00:49:50;;;;;;;13.80;4.13;;;15.10;80.30;;;;;;5046719;28;20080;-59
2023/04/27 00:52:16;;;;;;;13.68;3.85;;;15.10;80.40;;;;;;5046464;28;20025;-59
2023/04/27 00:54:41;;;;;;;12.55;3.83;;;15.10;80.50;;;;;;5046245;28;20215;-59
2023/04/27 00:57:07;;;;;;;13.65;3.97;;;15.10;80.50;;;;;;5045225;28;20449;-59
2023/04/27 00:59:33;;;;;;;17.10;3.97;;;15.10;80.60;;;;;;5046505;28;20121;-59
2023/04/27 01:01:59;;;;;;;10.93;3.45;;;15.10;81.40;;;;;;5046211;28;20029;-59
2023/04/27 01:04:27;;;;;;;11.32;3.85;;;15.30;80.90;;;;;;5046331;28;20048;-59
2023/04/27 01:06:53;;;;;;;14.00;3.47;;;15.00;80.90;;;;;;5044903;28;20052;-59
2023/04/27 01:09:19;;;;;;;14.63;4.07;;;15.00;81.00;;;;;;5046055;28;20041;-59
2023/04/27 01:11:47;;;;;;;10.32;2.97;;;15.00;81.00;;;;;;5046069;28;20033;-59
2023/04/27 01:14:13;;;;;;;9.63;3.63;;;15.00;81.10;;;;;;5044526;28;20037;-59
2023/04/27 01:16:39;;;;;;;11.45;2.90;;;15.00;81.10;;;;;;5045503;28;20041;-59
2023/04/27 01:19:06;;;;;;;13.07;3.75;;;15.00;81.20;;;;;;5046056;28;20160;-59
2023/04/27 01:21:31;;;;;;;18.15;3.67;;;15.00;81.30;;;;;;5044545;28;20381;-59
2023/04/27 01:23:57;;;;;;;12.05;3.58;;;15.00;81.60;;;;;;5045859;28;20116;-59
2023/04/27 01:26:23;;;;;;;8.68;3.28;;;14.90;81.60;;;;;;5028011;28;20071;-59
2023/04/27 01:28:49;;;;;;;11.15;3.47;;;15.00;82.20;;;;;;5045775;28;20022;-59
2023/04/27 01:31:15;;;;;;;17.65;3.97;;;14.90;81.60;;;;;;5045903;28;20026;-59
2023/04/27 01:33:41;;;;;;;10.07;3.25;;;14.90;81.80;;;;;;5045713;28;20037;-59
2023/04/27 01:36:07;;;;;;;10.13;3.33;;;14.90;81.90;;;;;;5045681;28;20098;-59
2023/04/27 01:38:33;;;;;;;9.82;3.75;;;14.90;82.00;;;;;;5045513;28;20067;-59
2023/04/27 01:41:00;;;;;;;11.68;3.50;;;14.90;82.10;;;;;;5045615;28;20026;-59
2023/04/27 01:43:33;;;;;;;10.15;3.10;;;14.80;82.20;;;;;;5045454;28;20033;-60
2023/04/27 01:46:08;;;;;;;10.35;3.13;;;14.80;82.30;;;;;;5045481;28;20187;-59
2023/04/27 01:48:34;;;;;;;7.53;3.13;;;14.80;82.40;;;;;;5045602;28;20093;-60
2023/04/27 01:51:00;;;;;;;8.48;3.05;;;14.80;82.90;;;;;;5045458;28;20033;-60
2023/04/27 01:53:26;;;;;;;10.35;3.20;;;14.80;82.90;;;;;;5045179;28;20025;-60
2023/04/27 01:55:52;;;;;;;6.97;3.17;;;14.80;82.70;;;;;;5044118;28;20079;-59
2023/04/27 01:58:17;;;;;;;11.35;3.20;;;14.80;83.00;;;;;;5044180;28;20478;-60
2023/04/27 02:00:43;;;;;;;14.30;2.95;;;14.80;83.20;;;;;;5045507;28;20045;-60
2023/04/27 02:03:08;;;;;;;6.65;2.85;;;14.80;83.20;;;;;;5043952;28;20091;-59
2023/04/27 02:05:34;;;;;;;7.95;3.00;;;14.80;83.30;;;;;;5045048;28;20510;-60
2023/04/27 02:08:00;;;;;;;10.13;3.42;;;14.80;83.30;;;;;;5045363;28;20022;-60
2023/04/27 02:10:25;;;;;;;10.05;3.70;;;14.70;83.30;;;;;;5044876;28;20029;-60
2023/04/27 02:12:51;;;;;;;11.27;3.15;;;14.70;83.30;;;;;;5045271;28;20024;-60
2023/04/27 02:15:17;;;;;;;11.27;3.00;;;14.70;83.30;;;;;;5044998;28;20053;-60
2023/04/27 02:17:42;;;;;;;7.15;2.97;;;14.70;83.40;;;;;;5043604;28;20025;-60
2023/04/27 02:20:09;;;;;;;11.05;3.50;;;14.70;83.50;;;;;;5044954;28;20033;-60
2023/04/27 02:22:36;;;;;;;7.18;2.63;;;14.70;83.50;;;;;;5044850;28;20045;-60
2023/04/27 02:25:02;;;;;;;8.95;3.30;;;14.70;83.50;;;;;;5044965;28;20403;-60
2023/04/27 02:27:27;;;;;;;8.70;2.97;;;14.60;83.40;;;;;;5045054;28;20052;-59
2023/04/27 02:29:53;;;;;;;6.53;2.88;;;14.60;83.50;;;;;;5044844;28;20148;-60
2023/04/27 02:32:18;;;;;;;5.82;3.22;;;14.60;83.60;;;;;;5045018;28;20022;-60
2023/04/27 02:34:44;;;;;;;8.30;2.75;;;14.60;83.60;;;;;;5044637;28;20029;-60
2023/04/27 02:37:10;;;;;;;9.60;3.42;;;14.60;83.70;;;;;;5044952;28;20064;-60
2023/04/27 02:39:35;;;;;;;6.28;3.00;;;14.60;83.80;;;;;;5043523;28;20029;-60
2023/04/27 02:42:02;;;;;;;6.45;2.58;;;14.60;84.00;;;;;;5044900;28;20048;-60
2023/04/27 02:44:28;;;;;;;6.65;3.25;;;14.60;84.00;;;;;;5044594;28;20089;-60
2023/04/27 02:46:55;;;;;;;8.02;3.58;;;14.70;84.40;;;;;;5044547;28;20056;-60
2023/04/27 02:49:20;;;;;;;7.10;4.20;;;14.60;84.20;;;;;;5044803;28;20037;-60
2023/04/27 02:51:46;;;;;;;8.65;3.97;;;14.60;84.10;;;;;;5044831;28;20029;-60
2023/04/27 02:54:11;;;;;;;7.97;3.85;;;14.60;84.10;;;;;;5044331;28;20037;-59
2023/04/27 02:56:37;;;;;;;8.05;3.30;;;14.60;84.10;;;;;;5044704;28;20081;-60
2023/04/27 02:59:02;;;;;;;9.50;3.42;;;14.60;84.30;;;;;;5044686;28;20033;-60
2023/04/27 03:01:28;;;;;;;8.57;3.50;;;14.60;84.30;;;;;;5044556;28;20064;-59
2023/04/27 03:03:54;;;;;;;8.20;3.58;;;14.60;84.30;;;;;;5044395;28;20029;-60
2023/04/27 03:06:19;;;;;;;9.73;3.47;;;14.60;84.50;;;;;;5044458;28;20026;-59
2023/04/27 03:08:45;;;;;;;5.78;3.58;;;14.60;84.60;;;;;;5043216;28;20081;-60
2023/04/27 03:11:11;;;;;;;10.45;3.45;;;14.50;84.60;;;;;;5044858;28;20045;-60
2023/04/27 03:13:40;;;;;;;7.05;3.58;;;14.50;84.80;;;;;;5044506;28;20029;-60
2023/04/27 03:16:32;;;;;;;13.15;3.63;;;14.50;84.80;;;;;;5044561;28;20034;-60
2023/04/27 03:18:57;;;;;;;6.32;3.58;;;14.50;84.70;;;;;;5061859;28;20033;-60
2023/04/27 03:21:23;;;;;;;6.30;3.50;;;14.50;84.90;;;;;;5061847;28;20041;-60
2023/04/27 03:23:48;;;;;;;4.40;3.03;;;14.50;84.90;;;;;;5061897;28;20033;-60
2023/04/27 03:26:14;;;;;;;5.93;3.40;;;14.50;85.00;;;;;;5061834;28;20033;-60
2023/04/27 03:28:40;;;;;;;7.97;3.55;;;14.50;85.10;;;;;;5045337;28;20057;-60
2023/04/27 03:31:07;;;;;;;6.03;3.22;;;14.50;85.30;;;;;;5061727;28;20048;-60
2023/04/27 03:33:32;;;;;;;6.88;3.50;;;14.50;85.30;;;;;;5061477;28;20037;-59
2023/04/27 03:35:58;;;;;;;5.70;3.58;;;14.50;85.50;;;;;;5061760;28;20029;-60
2023/04/27 03:38:24;;;;;;;6.50;3.67;;;14.40;85.70;;;;;;5061782;28;20033;-60
2023/04/27 03:40:50;;;;;;;9.05;3.55;;;14.50;86.00;;;;;;5048173;28;20037;-60
2023/04/27 03:43:15;;;;;;;7.18;3.95;;;14.50;86.10;;;;;;5048754;28;20063;-60
2023/04/27 03:45:41;;;;;;;11.02;4.05;;;14.50;86.30;;;;;;5065347;28;20037;-60
2023/04/27 03:48:07;;;;;;;14.02;4.63;;;14.50;86.20;;;;;;5048894;28;20021;-60
2023/04/27 03:50:32;;;;;;;15.20;4.53;;;14.40;86.20;;;;;;5051485;28;20418;-59
2023/04/27 03:52:58;;;;;;;14.02;5.25;;;14.40;86.90;;;;;;5046564;28;20026;-59
2023/04/27 03:55:24;;;;;;;18.30;5.63;;;14.40;86.40;;;;;;5045996;28;20041;-59
2023/04/27 03:57:50;;;;;;;14.85;5.00;;;14.50;86.60;;;;;;5047878;28;20022;-60
2023/04/27 04:00:19;;;;;;;27.90;6.22;;;14.40;86.60;;;;;;5045984;28;20083;-60
2023/04/27 04:02:44;;;;;;;33.67;6.72;;;14.50;87.10;;;;;;5046052;28;20053;-60
2023/04/27 04:05:11;;;;;;;23.95;6.78;;;14.40;86.90;;;;;;5047380;28;20033;-59
2023/04/27 04:07:36;;;;;;;28.17;6.38;;;14.50;86.80;;;;;;5047398;28;20081;-60
2023/04/27 04:10:02;;;;;;;25.38;6.78;;;14.40;86.70;;;;;;5045956;28;20071;-59
2023/04/27 04:12:28;;;;;;;26.88;6.30;;;14.40;86.80;;;;;;5045895;28;20458;-60
2023/04/27 04:14:53;;;;;;;29.63;6.72;;;14.40;86.70;;;;;;5047095;28;20378;-59
2023/04/27 04:17:19;;;;;;;19.42;6.60;;;14.40;86.70;;;;;;5047119;28;20021;-60
2023/04/27 04:19:45;;;;;;;23.38;6.85;;;14.40;86.80;;;;;;5045722;28;20068;-60
2023/04/27 04:22:10;;;;;;;26.20;7.18;;;14.40;86.80;;;;;;5047191;28;20457;-59
2023/04/27 04:24:36;;;;;;;39.03;8.38;;;14.40;87.20;;;;;;5045471;28;20033;-60
2023/04/27 04:27:03;;;;;;;32.33;7.82;;;14.40;87.30;;;;;;5047120;28;20083;-60
2023/04/27 04:29:28;;;;;;;32.38;7.78;;;14.40;87.30;;;;;;5046919;28;20018;-60
2023/04/27 04:31:57;;;;;;;23.48;6.38;;;14.40;87.40;;;;;;5046957;28;20037;-60
2023/04/27 04:34:23;;;;;;;25.92;6.25;;;14.40;87.40;;;;;;5046738;28;20026;-60
2023/04/27 04:36:51;;;;;;;25.23;6.97;;;14.40;87.50;;;;;;5046941;28;20040;-59
2023/04/27 04:39:21;;;;;;;29.63;6.35;;;14.30;88.00;;;;;;5046835;28;20086;-60
2023/04/27 04:41:48;;;;;;;20.13;5.43;;;14.30;87.40;;;;;;5046740;28;20049;-60
2023/04/27 04:44:15;;;;;;;28.85;6.30;;;14.30;87.50;;;;;;5046432;28;20091;-60
2023/04/27 04:46:41;;;;;;;51.45;8.23;;;14.30;87.60;;;;;;5045148;28;20029;-59
2023/04/27 04:49:07;;;;;;;35.10;8.55;;;14.30;87.60;;;;;;5045149;28;20021;-60
2023/04/27 04:51:32;;;;;;;42.90;7.93;;;14.30;88.40;;;;;;5045646;28;20064;-59
2023/04/27 04:53:58;;;;;;;57.83;9.85;;;14.30;87.70;;;;;;5046250;28;20206;-60
2023/04/27 04:56:24;;;;;;;94.85;13.10;;;14.20;87.70;;;;;;5046481;28;20030;-60
2023/04/27 04:58:50;;;;;;;87.97;11.50;;;14.20;87.90;;;;;;5044900;28;20054;-60
2023/04/27 05:01:15;;;;;;;97.95;12.63;;;14.20;88.10;;;;;;5046241;28;20040;-59
2023/04/27 05:03:41;;;;;;;91.25;12.15;;;14.20;88.20;;;;;;5046275;28;20064;-59
2023/04/27 05:06:06;;;;;;;54.75;9.23;;;14.20;88.10;;;;;;5044817;28;20044;-60
2023/04/27 05:08:32;;;;;;;47.42;8.43;;;14.20;88.00;;;;;;5046270;28;20029;-60
2023/04/27 05:10:58;;;;;;;46.15;8.60;;;14.20;87.90;;;;;;5044681;28;20076;-60
2023/04/27 05:13:23;;;;;;;72.85;10.32;;;14.20;88.10;;;;;;5044522;28;20025;-60
2023/04/27 05:15:50;;;;;;;62.80;9.75;;;14.20;88.10;;;;;;5045901;28;20033;-59
2023/04/27 05:18:16;;;;;;;53.92;9.77;;;14.20;88.20;;;;;;5045872;28;20500;-60
2023/04/27 05:20:42;;;;;;;73.22;9.98;;;14.20;88.30;;;;;;5045638;28;20041;-59
2023/04/27 05:23:07;;;;;;;83.60;11.35;;;14.30;88.30;;;;;;5045570;28;20450;-59
2023/04/27 05:25:33;;;;;;;73.00;10.13;;;14.20;88.20;;;;;;5045641;28;20041;-60
2023/04/27 05:27:59;;;;;;;89.00;12.27;;;14.20;88.30;;;;;;5045673;28;20033;-60
2023/04/27 05:30:24;;;;;;;62.65;10.18;;;14.10;88.90;;;;;;5044223;28;20049;-59
2023/04/27 05:32:50;;;;;;;66.03;9.65;;;14.20;88.40;;;;;;5044182;28;20021;-60
2023/04/27 05:35:16;;;;;;;53.25;8.43;;;14.20;88.40;;;;;;5044057;28;20089;-60
2023/04/27 05:37:42;;;;;;;58.83;9.57;;;14.20;88.50;;;;;;5045422;28;20389;-59
2023/04/27 05:40:11;;;;;;;50.50;8.25;;;14.20;88.50;;;;;;5045202;28;20025;-58
2023/04/27 05:42:36;;;;;;;45.92;7.57;;;14.20;88.40;;;;;;5045282;28;20041;-60
2023/04/27 05:45:02;;;;;;;46.70;8.50;;;14.20;88.40;;;;;;5044954;28;20048;-60
2023/04/27 05:47:29;;;;;;;41.60;7.40;;;14.20;88.40;;;;;;5045412;28;20032;-60
2023/04/27 05:49:54;;;;;;;52.72;7.90;;;14.20;88.40;;;;;;5045352;28;20045;-60
2023/04/27 05:52:20;;;;;;;43.58;7.93;;;14.20;88.50;;;;;;5045151;28;20107;-60
2023/04/27 05:54:47;;;;;;;48.55;7.65;;;14.20;88.60;;;;;;5044809;28;20039;-60
2023/04/27 05:57:12;;;;;;;47.20;8.88;;;14.20;88.50;;;;;;5043541;28;20056;-59
2023/04/27 05:59:38;;;;;;;60.05;9.73;;;14.10;88.70;;;;;;5044985;28;20022;-60
2023/04/27 06:02:04;;;;;;;56.50;9.68;;;14.20;89.10;;;;;;5044381;28;20045;-60
2023/04/27 06:04:31;;;;;;;62.25;9.55;;;14.10;89.20;;;;;;5043444;28;20029;-60
2023/04/27 06:06:57;;;;;;;47.10;8.63;;;14.10;89.50;;;;;;5044843;28;20029;-60
2023/04/27 06:09:23;;;;;;;54.20;8.70;;;14.10;89.90;;;;;;5045097;28;20044;-59
2023/04/27 06:11:48;;;;;;;50.13;8.10;;;14.20;90.00;;;;;;5045070;28;20034;-60
2023/04/27 06:14:15;;;;;;;37.78;7.72;;;14.10;90.00;;;;;;5044881;28;20056;-59
2023/04/27 06:16:40;;;;;;;62.58;9.18;;;14.20;90.10;;;;;;5045062;28;20076;-60
2023/04/27 06:19:06;;;;;;;36.67;7.38;;;14.20;90.10;;;;;;5044772;28;20030;-60
2023/04/27 06:21:32;;;;;;;40.88;8.18;;;14.20;90.10;;;;;;5045037;28;20529;-59
2023/04/27 06:23:58;;;;;;;35.40;7.25;;;14.10;90.10;;;;;;5043584;28;20208;-60
2023/04/27 06:26:24;;;;;;;26.00;6.60;;;14.20;90.10;;;;;;5044689;28;20026;-60
2023/04/27 06:28:49;;;;;;;34.42;6.88;;;14.10;90.20;;;;;;5044844;28;20446;-60
2023/04/27 06:31:15;;;;;;;24.02;6.07;;;14.10;90.20;;;;;;5044500;28;20055;-60
2023/04/27 06:33:41;;;;;;;25.85;6.43;;;14.20;90.20;;;;;;5044778;28;20041;-60
2023/04/27 06:36:07;;;;;;;32.30;6.70;;;14.30;90.20;;;;;;5043183;28;20037;-60
2023/04/27 06:38:32;;;;;;;36.88;6.95;;;14.20;90.20;;;;;;5044771;28;20044;-60
2023/04/27 06:40:58;;;;;;;55.65;10.23;;;14.20;90.20;;;;;;5044641;28;20060;-60
2023/04/27 06:43:24;;;;;;;51.60;10.05;;;14.20;90.30;;;;;;5043016;28;20030;-59
2023/04/27 06:45:49;;;;;;;107.97;13.93;;;14.30;90.40;;;;;;5044277;28;20057;-60
2023/04/27 06:48:15;;;;;;;75.90;13.20;;;14.20;90.40;;;;;;5044663;28;20025;-60
2023/04/27 06:50:41;;;;;;;89.40;12.45;;;14.30;90.50;;;;;;5044307;28;20095;-60
2023/04/27 06:53:07;;;;;;;71.65;11.73;;;14.30;90.50;;;;;;5044400;28;20035;-60
2023/04/27 06:55:33;;;;;;;43.05;10.00;;;14.30;90.60;;;;;;5036514;28;20065;-60
2023/04/27 06:57:59;;;;;;;60.35;9.50;;;14.30;90.90;;;;;;5022554;28;20060;-59
2023/04/27 07:00:25;;;;;;;100.35;13.80;;;14.30;90.60;;;;;;5023730;28;20045;-59
2023/04/27 07:02:51;;;;;;;99.00;14.68;;;14.30;90.90;;;;;;5023688;28;20048;-60
2023/04/27 07:05:17;;;;;;;84.07;12.60;;;14.40;91.00;;;;;;5024032;28;20026;-60
2023/04/27 07:07:43;;;;;;;78.55;12.68;;;14.40;91.20;;;;;;5023838;28;20073;-60
2023/04/27 07:10:09;;;;;;;60.65;9.40;;;14.40;91.20;;;;;;5043841;28;20781;-60
2023/04/27 07:12:35;;;;;;;62.95;11.93;;;14.50;91.10;;;;;;5056040;28;20430;-60
2023/04/27 07:15:03;;;;;;;57.67;10.35;;;14.50;91.00;;;;;;5026405;28;20049;-60
2023/04/27 07:17:28;;;;;;;74.63;11.13;;;14.40;91.00;;;;;;5036831;28;20544;-59
2023/04/27 07:19:54;;;;;;;57.95;10.23;;;14.50;91.00;;;;;;5046691;28;20037;-60
2023/04/27 07:22:20;;;;;;;71.80;9.32;;;14.50;91.00;;;;;;5039551;28;20041;-60
2023/04/27 07:24:46;;;;;;;50.88;9.65;;;14.50;90.90;;;;;;5045354;28;20056;-60
2023/04/27 07:27:12;;;;;;;73.15;11.82;;;14.60;91.00;;;;;;5044677;28;20048;-60
2023/04/27 07:29:38;;;;;;;52.88;9.52;;;14.60;90.90;;;;;;5045351;28;20029;-60
2023/04/27 07:32:06;;;;;;;90.50;13.00;;;14.60;90.90;;;;;;5047134;28;20355;-59
2023/04/27 07:34:31;;;;;;;58.70;10.77;;;14.60;90.90;;;;;;5048780;28;20052;-60
2023/04/27 07:36:57;;;;;;;62.03;9.90;;;14.70;90.90;;;;;;5045813;28;20018;-60
2023/04/27 07:39:22;;;;;;;71.47;10.65;;;14.70;90.80;;;;;;5050037;28;20033;-60
2023/04/27 07:41:48;;;;;;;81.60;11.00;;;14.70;90.70;;;;;;5050490;28;20168;-59
2023/04/27 07:44:16;;;;;;;83.38;12.50;;;14.70;90.60;;;;;;5050735;28;20162;-60
2023/04/27 07:46:42;;;;;;;104.75;14.27;;;14.80;90.60;;;;;;5054673;28;20040;-60
2023/04/27 07:49:08;;;;;;;116.68;14.13;;;14.80;91.00;;;;;;5046877;28;20029;-60
2023/04/27 07:51:33;;;;;;;112.18;13.57;;;14.90;90.80;;;;;;5062446;28;20059;-59
2023/04/27 07:54:01;;;;;;;97.63;12.80;;;14.90;90.80;;;;;;5049193;28;20025;-60
2023/04/27 07:56:26;;;;;;;91.53;13.05;;;14.90;90.70;;;;;;5060456;28;20036;-60
2023/04/27 07:58:52;;;;;;;147.40;17.85;;;14.90;90.60;;;;;;5047849;28;20097;-60
2023/04/27 08:01:18;;;;;;;155.18;18.45;;;14.90;90.50;;;;;;5042426;28;20040;-60
2023/04/27 08:03:43;;;;;;;155.48;18.23;;;14.90;90.60;;;;;;5036706;28;20041;-60
2023/04/27 08:06:09;;;;;;;95.68;14.13;;;15.00;90.70;;;;;;5040319;28;20085;-60
2023/04/27 08:08:35;;;;;;;68.50;12.73;;;15.00;90.80;;;;;;5064397;28;20112;-60
2023/04/27 08:11:01;;;;;;;93.20;12.85;;;15.00;90.50;;;;;;5065590;28;20515;-59
2023/04/27 08:13:26;;;;;;;92.20;13.27;;;15.00;90.70;;;;;;5040587;28;20087;-60
2023/04/27 08:15:57;;;;;;;93.18;13.75;;;15.00;90.30;;;;;;5027394;28;20073;-60
2023/04/27 08:18:23;;;;;;;154.93;20.05;;;15.00;90.40;;;;;;5024771;28;20030;-60
2023/04/27 08:20:48;;;;;;;113.00;16.27;;;15.00;90.40;;;;;;5025057;28;20026;-60
2023/04/27 08:23:14;;;;;;;97.85;14.35;;;15.00;90.30;;;;;;5023424;28;20026;-60
2023/04/27 08:25:40;;;;;;;141.07;16.27;;;15.10;90.10;;;;;;5023520;28;20458;-60
2023/04/27 08:28:05;;;;;;;118.10;15.18;;;15.10;90.10;;;;;;5024987;28;20030;-60
2023/04/27 08:30:31;;;;;;;149.15;19.80;;;15.20;90.50;;;;;;5025443;28;20081;-58
2023/04/27 08:32:56;;;;;;;106.80;17.45;;;15.20;90.40;;;;;;5030232;28;20038;-59
2023/04/27 08:35:22;;;;;;;170.52;22.77;;;15.20;90.30;;;;;;5028614;28;20482;-59
2023/04/27 08:37:48;;;;;;;139.07;18.02;;;15.30;90.40;;;;;;5026594;28;20084;-60
2023/04/27 08:40:13;;;;;;;159.43;19.10;;;15.30;90.50;;;;;;5025353;28;20022;-59
2023/04/27 08:42:40;;;;;;;131.82;20.15;;;15.30;90.30;;;;;;5035240;28;20036;-59
2023/04/27 08:45:07;;;;;;;113.40;15.07;;;15.40;90.10;;;;;;5062732;28;20035;-59
2023/04/27 08:47:32;;;;;;;84.35;14.10;;;15.40;90.00;;;;;;5065486;28;20456;-60
2023/04/27 08:49:58;;;;;;;79.28;14.73;;;15.50;89.90;;;;;;5066293;28;20025;-59
2023/04/27 08:52:24;;;;;;;90.45;13.73;;;15.50;89.60;;;;;;5064916;28;20121;-60
2023/04/27 08:54:49;;;;;;;107.07;14.60;;;15.50;90.00;;;;;;5063472;28;20028;-59
2023/04/27 08:57:15;;;;;;;118.90;15.02;;;15.60;89.30;;;;;;5053375;28;20136;-59
2023/04/27 08:59:43;;;;;;;97.85;14.13;;;15.60;89.10;;;;;;5044991;28;20040;-59
2023/04/27 09:02:19;;;;;;;109.65;14.07;;;15.60;89.10;;;;;;5044908;28;20021;-60
2023/04/27 09:04:44;;;;;;;;;;;15.70;88.90;;;;;;5045782;28;20029;-59
2023/04/27 09:07:14;;;;;;;99.88;14.90;;;15.70;88.80;;;;;;5047543;28;19921;-60
2023/04/27 09:09:39;;;;;;;90.35;14.15;;;15.70;88.50;;;;;;5062071;28;20021;-59
2023/04/27 09:12:19;;;;;;;88.22;14.77;;;15.70;88.30;;;;;;5051979;28;20044;-59
2023/04/27 09:15:02;;;;;;;112.90;15.32;;;15.80;88.10;;;;;;5063058;28;20061;-60
2023/04/27 09:17:29;;;;;;;103.75;14.63;;;15.80;87.90;;;;;;5030419;28;20045;-60
2023/04/27 09:20:07;;;;;;;110.18;15.05;;;15.90;87.90;;;;;;5044667;28;20029;-60
2023/04/27 09:22:45;;;;;;;94.03;13.45;;;15.90;87.70;;;;;;5041742;28;20037;-60
2023/04/27 09:25:24;;;;;;;89.45;13.13;;;15.90;87.50;;;;;;5045631;28;20028;-59
2023/04/27 09:27:50;;;;;;;131.55;16.05;;;16.00;87.40;;;;;;5052489;28;20026;-59
2023/04/27 09:30:16;;;;;;;102.45;13.55;;;16.00;87.50;;;;;;5043822;28;20040;-60
2023/04/27 09:32:55;;;;;;;110.43;12.95;;;16.00;87.50;;;;;;5058165;28;20162;-59
2023/04/27 09:35:25;;;;;;;84.40;12.93;;;16.10;87.20;;;;;;5051560;28;20418;-60
2023/04/27 09:37:51;;;;;;;100.88;13.00;;;16.10;86.90;;;;;;5044950;28;20458;-59
2023/04/27 09:40:26;;;;;;;89.63;13.00;;;16.10;86.80;;;;;;5045219;28;20041;-60
2023/04/27 09:42:56;;;;;;;112.60;13.87;;;16.10;86.70;;;;;;5045240;28;20350;-60
2023/04/27 09:45:25;;;;;;;91.47;14.32;;;16.20;86.70;;;;;;5035328;28;20025;-60
2023/04/27 09:47:51;;;;;;;103.95;14.30;;;16.20;86.40;;;;;;5071346;28;20044;-60
2023/04/27 09:50:16;;;;;;;86.63;12.95;;;16.30;86.30;;;;;;5062541;28;20017;-60
2023/04/27 09:52:42;;;;;;;92.78;12.40;;;16.30;86.00;;;;;;5047463;28;20101;-60
2023/04/27 09:55:16;;;;;;;81.40;12.13;;;16.40;85.80;;;;;;5041366;28;20032;-60
2023/04/27 09:58:05;;;;;;;76.43;12.27;;;16.40;85.50;;;;;;5041335;28;20037;-60
2023/04/27 10:00:51;;;;;;;110.97;14.35;;;16.50;85.40;;;;;;5037616;28;20040;-59
2023/04/27 10:03:31;;;;;;;121.38;14.18;;;16.50;85.30;;;;;;5026326;28;20046;-59
2023/04/27 10:06:18;;;;;;;98.70;12.93;;;16.60;85.20;;;;;;5045844;28;20166;-59
2023/04/27 10:08:44;;;;;;;83.45;10.38;;;16.60;85.10;;;;;;5039983;28;20072;-59
2023/04/27 10:11:14;;;;;;;63.88;10.65;;;16.60;84.80;;;;;;5031532;28;20037;-59
2023/04/27 10:13:50;;;;;;;77.97;10.77;;;16.60;84.60;;;;;;5024238;28;20034;-59
2023/04/27 10:16:16;;;;;;;82.88;12.25;;;16.70;84.60;;;;;;5024976;28;20030;-60
2023/04/27 10:18:50;;;;;;;67.68;9.57;;;16.70;84.40;;;;;;5024561;28;20093;-60
2023/04/27 10:21:15;;;;;;;138.77;17.58;;;16.80;84.10;;;;;;5024187;28;20033;-59
2023/04/27 10:23:49;;;;;;;120.15;15.18;;;16.80;84.10;;;;;;5025791;28;20134;-59
2023/04/27 10:26:25;;;;;;;124.90;14.63;;;16.80;84.00;;;;;;5024746;28;20021;-59
2023/04/27 10:29:06;;;;;;;100.10;13.25;;;16.90;83.80;;;;;;5024559;28;20042;-60
2023/04/27 10:31:32;;;;;;;79.55;11.65;;;16.90;83.60;;;;;;5026274;28;20029;-60
2023/04/27 10:34:05;;;;;;;118.90;15.15;;;16.90;83.40;;;;;;5042815;28;20033;-60
2023/04/27 10:36:38;;;;;;;108.78;13.60;;;17.00;83.90;;;;;;5044409;28;20025;-59
2023/04/27 10:39:15;;;;;;;86.07;13.13;;;17.00;83.80;;;;;;5035842;28;20053;-60
2023/04/27 10:41:51;;;;;;;115.07;14.02;;;17.10;83.30;;;;;;5029490;28;20029;-59
2023/04/27 10:44:20;;;;;;;80.80;12.48;;;17.20;83.20;;;;;;5038243;28;20127;-59
2023/04/27 10:46:55;;;;;;;104.70;13.45;;;17.10;82.80;;;;;;5037445;28;20493;-59
2023/04/27 10:49:21;;;;;;;;;;;17.10;82.70;;;;;;5043878;28;20103;-60
2023/04/27 10:51:47;;;;;;;87.40;12.45;;;17.20;82.80;;;;;;5074216;28;19908;-60
2023/04/27 10:54:13;;;;;;;106.45;13.93;;;17.20;82.70;;;;;;5045041;28;20064;-59
2023/04/27 10:56:39;;;;;;;83.00;13.35;;;17.30;82.70;;;;;;5043910;28;20029;-59
2023/04/27 10:59:05;;;;;;;88.78;12.93;;;17.30;82.60;;;;;;5046531;28;20025;-59
2023/04/27 11:01:30;;;;;;;79.97;13.32;;;17.30;82.40;;;;;;5048402;28;20500;-60
2023/04/27 11:04:00;;;;;;;85.72;12.73;;;17.30;82.10;;;;;;5048099;28;20037;-59
2023/04/27 11:06:27;;;;;;;76.60;11.40;;;17.40;82.30;;;;;;5047944;28;20496;-57
2023/04/27 11:08:52;;;;;;;98.60;12.30;;;17.40;82.30;;;;;;5048058;28;20032;-56
2023/04/27 11:11:18;;;;;;;68.20;11.25;;;17.40;82.40;;;;;;5047950;28;20033;-61
2023/04/27 11:13:47;;;;;;;104.13;13.48;;;17.50;82.50;;;;;;5046460;28;20083;-57
2023/04/27 11:16:13;;;;;;;108.43;13.45;;;17.50;82.10;;;;;;5046252;28;20056;-60
2023/04/27 11:18:38;;;;;;;80.88;11.50;;;17.60;82.60;;;;;;5047790;28;20025;-60
2023/04/27 11:21:11;;;;;;;97.53;12.63;;;17.60;81.70;;;;;;5044983;28;20422;-59
2023/04/27 11:23:37;;;;;;;98.55;13.75;;;17.60;81.40;;;;;;5047572;28;20030;-59
2023/04/27 11:26:16;;;;;;;112.72;13.85;;;17.70;81.30;;;;;;5047235;28;20409;-59
2023/04/27 11:28:56;;;;;;;78.30;11.55;;;17.70;81.00;;;;;;5046441;28;20101;-60
2023/04/27 11:31:22;;;;;;;81.35;11.63;;;17.70;81.00;;;;;;5046444;28;20029;-60
2023/04/27 11:33:48;;;;;;;83.65;11.18;;;17.80;81.10;;;;;;5047353;28;20088;-56
2023/04/27 11:36:18;;;;;;;73.95;10.73;;;17.80;81.10;;;;;;5047057;28;20052;-55
2023/04/27 11:38:43;;;;;;;89.38;11.27;;;17.90;80.70;;;;;;5046796;28;20049;-56
2023/04/27 11:41:09;;;;;;;77.43;8.98;;;17.80;80.40;;;;;;5047315;28;20026;-55
2023/04/27 11:43:36;;;;;;;42.72;6.63;;;17.90;80.20;;;;;;5024592;28;20042;-55
2023/04/27 11:46:09;;;;;;;44.85;7.55;;;17.90;79.90;;;;;;5044361;28;20025;-56
2023/04/27 11:48:36;;;;;;;37.08;6.50;;;18.00;79.50;;;;;;5046770;28;20104;-55
2023/04/27 11:51:02;;;;;;;50.90;6.80;;;18.00;79.10;;;;;;5045580;28;20022;-56
2023/04/27 11:53:33;;;;;;;28.05;6.63;;;18.00;78.80;;;;;;5057488;28;20037;-56
2023/04/27 11:56:04;;;;;;;40.75;6.95;;;18.00;78.40;;;;;;5047155;28;20033;-55
2023/04/27 11:58:33;;;;;;;56.47;8.55;;;18.10;78.10;;;;;;5044430;28;20033;-55
2023/04/27 12:00:59;;;;;;;63.45;8.15;;;18.20;77.70;;;;;;5045292;28;20030;-55
2023/04/27 12:03:24;;;;;;;75.38;9.57;;;18.30;77.50;;;;;;5045413;28;20083;-55
2023/04/27 12:05:50;;;;;;;71.80;9.23;;;18.40;77.30;;;;;;5045014;28;20394;-55
2023/04/27 12:08:16;;;;;;;51.90;7.43;;;18.50;77.00;;;;;;5046813;28;20040;-55
2023/04/27 12:10:42;;;;;;;52.78;7.90;;;18.50;77.10;;;;;;5045453;28;20056;-56
2023/04/27 12:13:07;;;;;;;33.05;6.60;;;18.50;77.10;;;;;;5042266;28;20476;-56
2023/04/27 12:15:33;;;;;;;50.53;6.85;;;18.60;77.10;;;;;;5045475;28;20025;-55
2023/04/27 12:17:59;;;;;;;59.75;8.48;;;18.60;77.10;;;;;;5046191;28;20056;-55
2023/04/27 12:20:25;;;;;;;48.38;6.80;;;18.70;76.90;;;;;;5046298;28;20060;-55
2023/04/27 12:22:50;;;;;;;63.55;7.88;;;18.80;76.90;;;;;;5048032;28;20042;-55
2023/04/27 12:25:17;;;;;;;35.13;6.50;;;18.80;76.20;;;;;;5038090;28;20033;-55
2023/04/27 12:27:46;;;;;;;44.97;6.57;;;18.90;75.90;;;;;;5058267;28;20029;-55
2023/04/27 12:30:12;;;;;;;47.67;6.53;;;19.00;75.50;;;;;;5058754;28;20010;-55
2023/04/27 12:32:38;;;;;;;48.10;6.88;;;19.00;76.00;;;;;;5046182;28;20043;-55